createdAt,value
2018-12-04T00:02:28.931Z,37.30
2018-12-04T00:04:59.817Z,50.63
2018-12-04T00:07:30.712Z,19.67
2018-12-04T00:10:01.535Z,24.03
2018-12-04T00:12:32.712Z,36.27
2018-12-04T00:15:03.692Z,52.57
2018-12-04T00:17:34.617Z,24.50
2018-12-04T00:20:06.061Z,41.83
2018-12-04T00:22:36.922Z,37.33
2018-12-04T00:25:07.791Z,45.80
2018-12-04T00:27:38.672Z,65.87
2018-12-04T00:30:09.891Z,56.77
2018-12-04T00:32:40.671Z,42.80
2018-12-04T00:35:11.362Z,45.40
2018-12-04T00:37:42.141Z,42.60
2018-12-04T00:40:12.871Z,23.23
2018-12-04T00:42:43.817Z,33.67
2018-12-04T00:45:14.631Z,18.63
2018-12-04T00:47:45.421Z,28.87
2018-12-04T00:50:16.266Z,25.27
2018-12-04T00:52:47.191Z,15.43
2018-12-04T00:55:17.971Z,21.47
2018-12-04T00:57:48.731Z,28.43
2018-12-04T01:00:19.750Z,26.00
2018-12-04T01:02:50.566Z,21.47
2018-12-04T01:05:21.231Z,28.63
2018-12-04T01:07:52.017Z,21.83
2018-12-04T01:10:22.856Z,23.13
2018-12-04T01:12:53.798Z,25.23
2018-12-04T01:15:24.721Z,23.00
2018-12-04T01:17:55.481Z,13.93
2018-12-04T01:20:26.292Z,22.60
2018-12-04T01:22:57.191Z,23.20
2018-12-04T01:25:28.091Z,19.93
2018-12-04T01:27:58.976Z,13.50
2018-12-04T01:30:29.971Z,9.10
2018-12-04T01:33:00.895Z,15.83
2018-12-04T01:35:31.717Z,14.03
2018-12-04T01:38:02.571Z,13.60
2018-12-04T01:40:33.417Z,23.13
2018-12-04T01:43:04.322Z,11.57
2018-12-04T01:45:35.131Z,31.10
2018-12-04T01:48:06.072Z,20.47
2018-12-04T01:50:36.941Z,17.87
2018-12-04T01:53:07.801Z,17.20
2018-12-04T01:55:38.651Z,11.80
2018-12-04T01:58:09.675Z,34.60
2018-12-04T02:00:40.677Z,25.57
2018-12-04T02:03:11.611Z,22.67
2018-12-04T02:05:42.511Z,14.20
2018-12-04T02:08:13.516Z,16.60
2018-12-04T02:10:44.336Z,16.33
2018-12-04T02:13:15.232Z,12.80
2018-12-04T02:15:46.016Z,11.83
2018-12-04T02:18:16.881Z,14.83
2018-12-04T02:20:53.462Z,18.73
2018-12-04T02:23:24.375Z,20.77
2018-12-04T02:25:55.115Z,12.43
2018-12-04T02:28:29.911Z,12.87
2018-12-04T02:31:00.870Z,13.27
2018-12-04T02:33:32.021Z,12.47
2018-12-04T02:36:03.117Z,17.53
2018-12-04T02:38:41.649Z,15.97
2018-12-04T02:41:12.735Z,16.30
2018-12-04T02:43:43.727Z,24.87
2018-12-04T02:46:14.531Z,21.60
2018-12-04T02:48:45.477Z,21.23
2018-12-04T02:51:16.566Z,18.70
2018-12-04T02:53:47.590Z,24.03
2018-12-04T02:56:18.431Z,27.50
2018-12-04T02:58:49.521Z,16.30
2018-12-04T03:01:20.640Z,17.17
2018-12-04T03:03:51.745Z,19.13
2018-12-04T03:06:23.162Z,25.43
2018-12-04T03:08:54.037Z,28.27
2018-12-04T03:11:24.891Z,13.33
2018-12-04T03:13:55.731Z,16.67
2018-12-04T03:16:26.581Z,16.40
2018-12-04T03:18:57.396Z,18.13
2018-12-04T03:21:28.192Z,18.67
2018-12-04T03:23:59.071Z,23.30
2018-12-04T03:26:29.872Z,21.57
2018-12-04T03:29:00.751Z,12.17
2018-12-04T03:31:31.692Z,13.00
2018-12-04T03:34:02.529Z,13.43
2018-12-04T03:36:33.395Z,10.13
2018-12-04T03:39:07.842Z,13.83
2018-12-04T03:41:38.657Z,15.67
2018-12-04T03:44:09.502Z,12.47
2018-12-04T03:46:40.342Z,14.13
2018-12-04T03:49:11.163Z,17.70
2018-12-04T03:51:42.052Z,10.70
2018-12-04T03:54:12.986Z,15.13
2018-12-04T03:56:43.851Z,18.63
2018-12-04T03:59:14.680Z,15.80
2018-12-04T04:01:45.712Z,14.00
2018-12-04T04:04:16.521Z,11.33
2018-12-04T04:06:47.474Z,11.60
2018-12-04T04:09:18.297Z,17.47
2018-12-04T04:11:49.209Z,26.43
2018-12-04T04:14:20.032Z,24.20
2018-12-04T04:16:50.826Z,12.10
2018-12-04T04:19:21.637Z,25.17
2018-12-04T04:21:52.477Z,17.30
2018-12-04T04:24:23.392Z,20.70
2018-12-04T04:26:54.145Z,8.30
2018-12-04T04:29:25.171Z,13.87
2018-12-04T04:31:56.332Z,11.20
2018-12-04T04:34:27.333Z,21.63
2018-12-04T04:36:58.213Z,12.47
2018-12-04T04:39:29.193Z,15.43
2018-12-04T04:42:00.057Z,10.33
2018-12-04T04:44:30.963Z,16.87
2018-12-04T04:47:01.764Z,11.77
2018-12-04T04:49:32.622Z,17.07
2018-12-04T04:52:03.418Z,9.80
2018-12-04T04:54:34.307Z,17.23
2018-12-04T04:57:05.249Z,13.83
2018-12-04T04:59:36.172Z,13.03
2018-12-04T05:02:07.274Z,14.30
2018-12-04T05:04:38.168Z,13.37
2018-12-04T05:07:08.954Z,26.07
2018-12-04T05:09:39.994Z,12.23
2018-12-04T05:12:11.093Z,17.63
2018-12-04T05:14:42.043Z,12.33
2018-12-04T05:17:12.893Z,16.70
2018-12-04T05:19:43.793Z,19.70
2018-12-04T05:22:14.673Z,21.20
2018-12-04T05:24:45.633Z,23.27
2018-12-04T05:27:16.472Z,18.20
2018-12-04T05:29:47.413Z,14.97
2018-12-04T05:32:18.453Z,20.30
2018-12-04T05:34:49.452Z,16.43
2018-12-04T05:37:20.243Z,23.33
2018-12-04T05:39:51.408Z,15.67
2018-12-04T05:42:22.324Z,19.00
2018-12-04T05:44:53.352Z,19.97
2018-12-04T05:47:24.207Z,17.43
2018-12-04T05:49:55.342Z,25.37
2018-12-04T05:52:26.272Z,18.47
2018-12-04T05:54:57.359Z,11.50
2018-12-04T05:57:28.315Z,16.47
2018-12-04T05:59:59.463Z,16.73
2018-12-04T06:02:30.540Z,14.30
2018-12-04T06:05:01.542Z,10.13
2018-12-04T06:07:32.352Z,18.77
2018-12-04T06:10:03.317Z,20.70
2018-12-04T06:12:34.275Z,15.60
2018-12-04T06:15:05.807Z,19.97
2018-12-04T06:17:36.618Z,21.13
2018-12-04T06:20:07.733Z,11.43
2018-12-04T06:22:38.531Z,21.23
2018-12-04T06:25:09.412Z,20.73
2018-12-04T06:27:40.196Z,12.23
2018-12-04T06:30:11.141Z,15.67
2018-12-04T06:32:42.077Z,20.40
2018-12-04T06:35:13.082Z,16.73
2018-12-04T06:37:43.972Z,21.63
2018-12-04T06:40:14.931Z,13.53
2018-12-04T06:42:45.728Z,28.40
2018-12-04T06:45:16.613Z,23.07
2018-12-04T06:47:47.457Z,14.63
2018-12-04T06:50:18.336Z,14.93
2018-12-04T06:52:50.282Z,15.90
2018-12-04T06:55:21.301Z,16.60
2018-12-04T06:57:59.754Z,17.37
2018-12-04T07:00:30.807Z,24.47
2018-12-04T07:03:01.937Z,17.37
2018-12-04T07:05:32.917Z,25.50
2018-12-04T07:08:03.887Z,31.03
2018-12-04T07:10:35.281Z,21.73
2018-12-04T07:13:06.273Z,17.17
2018-12-04T07:15:37.347Z,23.23
2018-12-04T07:18:08.242Z,26.70
2018-12-04T07:20:39.257Z,23.25
2018-12-04T07:23:10.262Z,17.33
2018-12-04T07:25:41.196Z,21.03
2018-12-04T07:28:12.187Z,23.00
2018-12-04T07:30:43.288Z,19.20
2018-12-04T07:33:14.299Z,23.43
2018-12-04T07:35:45.252Z,21.77
2018-12-04T07:38:16.247Z,24.80
2018-12-04T07:40:47.302Z,18.43
2018-12-04T07:43:18.439Z,24.73
2018-12-04T07:45:49.483Z,23.70
2018-12-04T07:48:20.717Z,17.30
2018-12-04T07:50:51.752Z,20.00
2018-12-04T07:53:23.119Z,17.93
2018-12-04T07:55:54.108Z,20.20
2018-12-04T07:58:25.208Z,17.90
2018-12-04T08:00:56.326Z,21.80
2018-12-04T08:03:27.767Z,19.43
2018-12-04T08:06:00.873Z,19.60
2018-12-04T08:08:31.747Z,22.23
2018-12-04T08:11:02.807Z,30.57
2018-12-04T08:13:34.157Z,24.07
2018-12-04T08:16:06.282Z,22.57
2018-12-04T08:18:37.882Z,25.43
2018-12-04T08:21:09.027Z,18.77
2018-12-04T08:23:39.902Z,21.10
2018-12-04T08:26:11.051Z,19.50
2018-12-04T08:28:42.172Z,19.13
2018-12-04T08:31:13.246Z,22.47
2018-12-04T08:33:44.450Z,26.03
2018-12-04T08:36:15.526Z,26.20
2018-12-04T08:38:46.476Z,23.10
2018-12-04T08:41:17.454Z,20.23
2018-12-04T08:43:48.497Z,23.50
2018-12-04T08:46:19.446Z,27.93
2018-12-04T08:48:50.492Z,22.07
2018-12-04T08:51:21.586Z,19.13
2018-12-04T08:53:52.566Z,19.10
2018-12-04T08:56:23.538Z,21.37
2018-12-04T08:58:54.886Z,25.37
2018-12-04T09:01:25.911Z,32.30
2018-12-04T09:03:59.323Z,18.30
2018-12-04T09:06:34.502Z,19.50
2018-12-04T09:09:08.822Z,21.23
2018-12-04T09:11:40.946Z,20.57
2018-12-04T09:14:12.137Z,24.13
2018-12-04T09:16:43.451Z,18.03
2018-12-04T09:19:14.392Z,21.03
2018-12-04T09:21:45.518Z,22.20
2018-12-04T09:24:16.681Z,24.27
2018-12-04T09:26:47.855Z,17.30
2018-12-04T09:29:18.888Z,17.80
2018-12-04T09:31:50.006Z,21.67
2018-12-04T09:34:21.171Z,30.50
2018-12-04T09:36:52.249Z,20.40
2018-12-04T09:39:23.146Z,22.40
2018-12-04T09:41:54.426Z,19.33
2018-12-04T09:44:25.286Z,17.43
2018-12-04T09:46:56.289Z,20.67
2018-12-04T09:49:27.777Z,15.47
2018-12-04T09:51:58.948Z,16.03
2018-12-04T09:54:30.041Z,19.07
2018-12-04T09:57:02.392Z,19.13
2018-12-04T09:59:39.202Z,16.70
2018-12-04T10:02:06.916Z,19.87
2018-12-04T10:04:38.077Z,20.83
2018-12-04T10:07:09.184Z,17.23
2018-12-04T10:09:40.271Z,16.00
2018-12-04T10:12:11.481Z,15.93
2018-12-04T10:14:42.359Z,22.67
2018-12-04T10:17:13.531Z,15.27
2018-12-04T10:19:44.741Z,15.83
2018-12-04T10:22:15.836Z,17.53
2018-12-04T10:24:47.126Z,21.63
2018-12-04T10:27:18.225Z,13.80
2018-12-04T10:29:49.255Z,19.23
2018-12-04T10:32:20.546Z,14.40
2018-12-04T10:34:51.695Z,20.43
2018-12-04T10:37:22.836Z,16.00
2018-12-04T10:39:53.986Z,22.00
2018-12-04T10:42:25.396Z,13.70
2018-12-04T10:44:56.435Z,15.37
2018-12-04T10:47:27.930Z,20.60
2018-12-04T10:49:58.790Z,24.93
2018-12-04T10:52:29.880Z,16.27
2018-12-04T10:55:00.855Z,17.17
2018-12-04T10:57:33.060Z,12.93
2018-12-04T11:00:06.020Z,20.40
2018-12-04T11:02:42.410Z,13.53
2018-12-04T11:05:13.600Z,13.23
2018-12-04T11:07:44.850Z,11.30
2018-12-04T11:10:16.225Z,11.67
2018-12-04T11:12:47.421Z,22.33
2018-12-04T11:15:18.612Z,11.10
2018-12-04T11:17:49.999Z,16.27
2018-12-04T11:20:21.250Z,18.67
2018-12-04T11:22:52.725Z,18.60
2018-12-04T11:25:23.913Z,14.33
2018-12-04T11:27:55.238Z,11.23
2018-12-04T11:30:26.021Z,12.10
2018-12-04T11:32:56.941Z,10.87
2018-12-04T11:35:28.392Z,16.63
2018-12-04T11:37:59.806Z,14.37
2018-12-04T11:40:30.962Z,15.97
2018-12-04T11:43:08.545Z,16.67
2018-12-04T11:45:39.646Z,11.17
2018-12-04T11:48:10.841Z,14.03
2018-12-04T11:50:41.865Z,9.97
2018-12-04T11:53:13.400Z,16.03
2018-12-04T11:55:44.247Z,12.70
2018-12-04T11:58:15.376Z,11.80
2018-12-04T12:00:46.620Z,20.33
2018-12-04T12:03:17.736Z,16.50
2018-12-04T12:05:48.957Z,10.50
2018-12-04T12:08:22.016Z,12.07
2018-12-04T12:10:52.917Z,12.57
2018-12-04T12:13:24.110Z,12.60
2018-12-04T12:15:55.006Z,9.80
2018-12-04T12:18:26.421Z,11.43
2018-12-04T12:20:57.771Z,12.00
2018-12-04T12:23:28.759Z,12.87
2018-12-04T12:26:00.049Z,8.00
2018-12-04T12:28:30.915Z,10.87
2018-12-04T12:31:02.146Z,10.40
2018-12-04T12:33:33.096Z,7.80
2018-12-04T12:36:04.354Z,9.57
2018-12-04T12:38:35.256Z,8.20
2018-12-04T12:41:06.282Z,12.53
2018-12-04T12:43:37.591Z,8.90
2018-12-04T12:46:08.741Z,7.77
2018-12-04T12:48:39.976Z,6.93
2018-12-04T12:51:10.871Z,12.43
2018-12-04T12:53:41.946Z,6.40
2018-12-04T12:56:13.111Z,10.77
2018-12-04T12:58:44.316Z,9.83
2018-12-04T13:01:16.552Z,8.93
2018-12-04T13:03:47.902Z,9.07
2018-12-04T13:06:19.241Z,7.77
2018-12-04T13:08:50.090Z,8.27
2018-12-04T13:11:21.051Z,7.73
2018-12-04T13:13:52.701Z,7.00
2018-12-04T13:16:23.696Z,7.77
2018-12-04T13:18:55.262Z,6.87
2018-12-04T13:21:26.366Z,7.27
2018-12-04T13:23:57.401Z,11.70
2018-12-04T13:26:28.426Z,5.97
2018-12-04T13:28:59.694Z,6.50
2018-12-04T13:31:30.731Z,8.03
2018-12-04T13:34:02.013Z,7.97
2018-12-04T13:36:33.060Z,7.27
2018-12-04T13:39:05.827Z,16.07
2018-12-04T13:41:36.886Z,10.50
2018-12-04T13:44:08.059Z,7.70
2018-12-04T13:46:39.216Z,10.60
2018-12-04T13:49:10.445Z,9.47
2018-12-04T13:51:41.635Z,8.87
2018-12-04T13:54:13.049Z,8.90
2018-12-04T13:56:44.658Z,7.80
2018-12-04T13:59:16.455Z,11.20
2018-12-04T14:01:47.430Z,5.23
2018-12-04T14:04:18.799Z,8.67
2018-12-04T14:06:50.780Z,6.07
2018-12-04T14:09:25.681Z,4.70
2018-12-04T14:11:55.359Z,3.97
2018-12-04T14:14:26.308Z,8.90
2018-12-04T14:16:57.196Z,12.30
2018-12-04T14:19:28.711Z,7.10
2018-12-04T14:21:59.756Z,7.07
2018-12-04T14:24:31.001Z,7.40
2018-12-04T14:27:01.992Z,6.40
2018-12-04T14:29:32.898Z,5.67
2018-12-04T14:32:03.761Z,6.67
2018-12-04T14:34:35.114Z,3.93
2018-12-04T14:37:06.482Z,11.73
2018-12-04T14:39:37.691Z,11.57
2018-12-04T14:42:08.933Z,5.73
2018-12-04T14:44:40.479Z,9.10
2018-12-04T14:47:11.505Z,4.83
2018-12-04T14:49:42.751Z,5.70
2018-12-04T14:52:13.952Z,4.43
2018-12-04T14:54:45.159Z,8.03
2018-12-04T14:57:16.182Z,16.13
2018-12-04T14:59:47.344Z,19.70
2018-12-04T15:02:18.212Z,16.57
2018-12-04T15:04:49.268Z,5.93
2018-12-04T15:07:21.040Z,5.07
2018-12-04T15:09:52.102Z,9.77
2018-12-04T15:12:23.165Z,4.00
2018-12-04T15:14:55.891Z,9.57
2018-12-04T15:17:26.971Z,4.70
2018-12-04T15:19:57.867Z,5.90
2018-12-04T15:22:28.687Z,7.93
2018-12-04T15:24:59.674Z,5.73
2018-12-04T15:27:30.743Z,9.30
2018-12-04T15:30:01.735Z,9.43
2018-12-04T15:32:32.747Z,5.63
2018-12-04T15:35:04.139Z,7.77
2018-12-04T15:37:35.213Z,7.23
2018-12-04T15:40:07.447Z,6.00
2018-12-04T15:42:38.518Z,6.37
2018-12-04T15:45:09.633Z,13.87
2018-12-04T15:47:40.611Z,5.73
2018-12-04T15:50:11.878Z,10.47
2018-12-04T15:52:43.034Z,2.80
2018-12-04T15:55:14.276Z,5.03
2018-12-04T15:57:45.202Z,12.47
2018-12-04T16:00:16.160Z,4.60
2018-12-04T16:02:47.226Z,5.60
2018-12-04T16:05:18.506Z,4.67
2018-12-04T16:07:49.697Z,10.93
2018-12-04T16:10:20.869Z,3.90
2018-12-04T16:12:51.982Z,9.13
2018-12-04T16:15:22.967Z,6.43
2018-12-04T16:17:53.972Z,6.03
2018-12-04T16:20:24.919Z,11.00
2018-12-04T16:22:55.726Z,3.63
2018-12-04T16:25:27.862Z,8.00
2018-12-04T16:27:59.094Z,4.77
2018-12-04T16:30:30.102Z,5.00
2018-12-04T16:33:00.978Z,3.13
2018-12-04T16:35:32.042Z,6.33
2018-12-04T16:38:03.452Z,11.83
2018-12-04T16:40:34.692Z,5.77
2018-12-04T16:43:05.607Z,7.23
2018-12-04T16:45:36.852Z,7.00
2018-12-04T16:48:07.932Z,5.03
2018-12-04T16:50:38.952Z,3.97
2018-12-04T16:53:09.878Z,8.53
2018-12-04T16:55:40.854Z,5.90
2018-12-04T16:58:11.923Z,4.53
2018-12-04T17:00:42.957Z,7.30
2018-12-04T17:03:13.977Z,13.10
2018-12-04T17:05:44.928Z,7.33
2018-12-04T17:08:16.197Z,4.57
2018-12-04T17:10:47.144Z,2.87
2018-12-04T17:13:18.067Z,6.90
2018-12-04T17:15:49.129Z,2.63
2018-12-04T17:18:19.982Z,8.77
2018-12-04T17:20:50.989Z,8.13
2018-12-04T17:23:21.711Z,12.97
2018-12-04T17:25:52.642Z,6.90
2018-12-04T17:28:23.623Z,4.43
2018-12-04T17:30:54.564Z,5.43
2018-12-04T17:33:31.932Z,3.73
2018-12-04T17:36:03.097Z,3.20
2018-12-04T17:38:34.099Z,14.20
2018-12-04T17:41:05.202Z,221.33
2018-12-04T17:43:36.496Z,181.07
2018-12-04T17:46:07.533Z,30.90
2018-12-04T17:48:38.547Z,12.03
2018-12-04T17:51:09.643Z,5.03
2018-12-04T17:53:40.532Z,5.70
2018-12-04T17:56:19.897Z,6.73
2018-12-04T17:58:50.707Z,7.00
2018-12-04T18:01:21.608Z,5.10
2018-12-04T18:03:52.728Z,3.70
2018-12-04T18:06:23.657Z,6.07
2018-12-04T18:08:54.817Z,3.30
2018-12-04T18:11:27.807Z,3.10
2018-12-04T18:13:58.683Z,3.20
2018-12-04T18:16:29.607Z,3.53
2018-12-04T18:19:00.727Z,3.27
2018-12-04T18:21:31.657Z,3.90
2018-12-04T18:24:02.517Z,7.93
2018-12-04T18:26:33.414Z,1.80
2018-12-04T18:29:04.313Z,3.20
2018-12-04T18:31:35.143Z,3.80
2018-12-04T18:34:06.128Z,3.27
2018-12-04T18:36:37.032Z,4.13
2018-12-04T18:39:09.697Z,2.87
2018-12-04T18:41:41.682Z,4.73
2018-12-04T18:44:14.527Z,2.10
2018-12-04T18:46:49.582Z,3.10
2018-12-04T18:49:20.567Z,12.43
2018-12-04T18:51:51.492Z,5.93
2018-12-04T18:54:22.267Z,2.97
2018-12-04T18:56:53.402Z,6.00
2018-12-04T18:59:24.412Z,1.37
2018-12-04T19:01:55.288Z,7.13
2018-12-04T19:04:26.303Z,2.80
2018-12-04T19:06:57.112Z,5.13
2018-12-04T19:09:28.773Z,3.33
2018-12-04T19:11:59.724Z,2.47
2018-12-04T19:14:30.758Z,4.40
2018-12-04T19:17:01.687Z,2.00
2018-12-04T19:19:32.787Z,75.57
2018-12-04T19:22:03.797Z,25.20
2018-12-04T19:24:34.637Z,22.10
2018-12-04T19:27:05.538Z,4.00
2018-12-04T19:29:36.702Z,3.03
2018-12-04T19:32:07.657Z,9.87
2018-12-04T19:34:38.668Z,2.53
2018-12-04T19:37:09.587Z,9.33
2018-12-04T19:39:40.817Z,8.73
2018-12-04T19:42:11.805Z,6.10
2018-12-04T19:44:42.608Z,4.63
2018-12-04T19:47:13.447Z,5.10
2018-12-04T19:49:44.517Z,5.43
2018-12-04T19:52:15.412Z,9.47
2018-12-04T19:54:46.447Z,7.17
2018-12-04T19:57:17.352Z,5.57
2018-12-04T19:59:49.077Z,4.27
2018-12-04T20:02:20.352Z,6.30
2018-12-04T20:04:51.373Z,7.20
2018-12-04T20:07:22.337Z,5.70
2018-12-04T20:09:53.942Z,12.07
2018-12-04T20:12:24.831Z,3.13
2018-12-04T20:14:55.767Z,7.60
2018-12-04T20:17:26.692Z,4.87
2018-12-04T20:19:57.617Z,10.50
2018-12-04T20:22:28.597Z,3.77
2018-12-04T20:24:59.643Z,14.43
2018-12-04T20:27:30.512Z,9.33
2018-12-04T20:30:01.653Z,4.27
2018-12-04T20:32:32.689Z,5.23
2018-12-04T20:35:04.940Z,6.00
2018-12-04T20:37:36.106Z,2.97
2018-12-04T20:40:08.027Z,7.37
2018-12-04T20:42:38.907Z,3.17
2018-12-04T20:45:09.922Z,5.13
2018-12-04T20:47:40.867Z,5.10
2018-12-04T20:50:12.233Z,13.63
2018-12-04T20:52:43.207Z,8.87
2018-12-04T20:55:14.112Z,6.17
2018-12-04T20:57:45.157Z,19.03
2018-12-04T21:00:16.037Z,8.60
2018-12-04T21:02:47.087Z,17.93
2018-12-04T21:05:18.082Z,101.57
2018-12-04T21:07:49.033Z,159.00
2018-12-04T21:10:20.717Z,112.23
2018-12-04T21:12:51.697Z,10.57
2018-12-04T21:15:22.399Z,8.93
2018-12-04T21:17:53.332Z,6.03
2018-12-04T21:20:24.192Z,8.00
2018-12-04T21:22:55.263Z,4.50
2018-12-04T21:25:26.082Z,3.57
2018-12-04T21:28:02.902Z,10.90
2018-12-04T21:30:38.578Z,12.93
2018-12-04T21:34:12.008Z,7.80
2018-12-04T21:36:47.536Z,5.93
2018-12-04T21:39:22.502Z,6.23
2018-12-04T21:41:58.647Z,3.27
2018-12-04T21:44:34.487Z,11.33
2018-12-04T21:47:10.267Z,3.33
2018-12-04T21:49:41.117Z,3.13
2018-12-04T21:52:14.912Z,3.60
2018-12-04T21:54:45.753Z,6.30
2018-12-04T21:57:16.507Z,1.73
2018-12-04T21:59:47.377Z,2.23
2018-12-04T22:02:18.303Z,3.57
2018-12-04T22:04:49.223Z,4.50
2018-12-04T22:07:20.073Z,1.57
2018-12-04T22:09:51.753Z,6.73
2018-12-04T22:12:24.459Z,2.80
2018-12-04T22:14:55.762Z,3.50
2018-12-04T22:17:26.572Z,6.87
2018-12-04T22:19:57.492Z,2.30
2018-12-04T22:22:28.311Z,4.70
2018-12-04T22:25:00.647Z,6.43
2018-12-04T22:27:31.432Z,3.20
2018-12-04T22:30:02.232Z,3.87
2018-12-04T22:32:32.962Z,1.97
2018-12-04T22:35:04.087Z,2.87
2018-12-04T22:37:34.902Z,4.80
2018-12-04T22:40:06.527Z,4.17
2018-12-04T22:42:37.393Z,1.70
2018-12-04T22:45:13.648Z,9.37
2018-12-04T22:47:44.432Z,1.97
2018-12-04T22:50:15.235Z,2.33
2018-12-04T22:52:46.172Z,13.33
2018-12-04T22:55:17.273Z,4.73
2018-12-04T22:57:48.112Z,7.23
2018-12-04T23:00:28.247Z,2.60
2018-12-04T23:03:01.210Z,2.90
2018-12-04T23:05:33.282Z,3.90
2018-12-04T23:08:04.168Z,1.57
2018-12-04T23:10:35.107Z,7.23
2018-12-04T23:13:06.638Z,3.40
2018-12-04T23:15:37.505Z,6.27
2018-12-04T23:18:08.473Z,2.13
2018-12-04T23:20:39.452Z,7.30
2018-12-04T23:23:10.183Z,2.57
2018-12-04T23:25:41.287Z,2.30
2018-12-04T23:28:12.066Z,1.30
2018-12-04T23:30:42.867Z,2.53
2018-12-04T23:33:13.583Z,6.47
2018-12-04T23:35:44.357Z,1.27
2018-12-04T23:38:15.192Z,9.37
2018-12-04T23:40:46.112Z,1.93
2018-12-04T23:43:17.083Z,1.87
2018-12-04T23:45:47.963Z,6.30
2018-12-04T23:48:18.843Z,3.90
2018-12-04T23:50:49.708Z,4.97
2018-12-04T23:53:20.387Z,1.70
2018-12-04T23:55:51.198Z,1.00
2018-12-04T23:58:22.073Z,1.87
